createdAt,value
2023-11-30T00:00:00.053Z,52234.31
2023-11-30T00:02:28.540Z,52246.34
2023-11-30T00:04:58.415Z,52226.28
2023-11-30T00:07:26.839Z,52250.34
2023-11-30T00:09:55.273Z,52222.25
2023-11-30T00:12:23.792Z,52240.31
2023-11-30T00:14:52.255Z,52226.28
2023-11-30T00:17:20.724Z,52242.31
2023-11-30T00:19:49.134Z,52198.19
2023-11-30T00:22:18.913Z,52224.28
2023-11-30T00:24:47.379Z,52246.34
2023-11-30T00:27:15.981Z,52222.25
2023-11-30T00:29:44.602Z,52238.31
2023-11-30T00:32:13.036Z,52218.25
2023-11-30T00:34:41.536Z,52210.22
2023-11-30T00:37:10.022Z,52212.22
2023-11-30T00:39:39.885Z,52224.28
2023-11-30T00:42:08.919Z,52232.31
2023-11-30T00:44:37.007Z,52226.28
2023-11-30T00:47:06.001Z,52236.31
2023-11-30T00:49:34.528Z,52234.31
2023-11-30T00:52:03.656Z,52218.25
2023-11-30T00:54:32.551Z,52236.31
2023-11-30T00:57:03.185Z,52206.22
2023-11-30T00:59:31.814Z,52246.34
2023-11-30T01:02:00.444Z,52230.28
2023-11-30T01:04:29.158Z,52262.41
2023-11-30T01:06:57.533Z,52216.25
2023-11-30T01:09:26.699Z,52190.16
2023-11-30T01:11:55.243Z,52198.19
2023-11-30T01:14:25.084Z,52214.25
2023-11-30T01:16:53.668Z,52220.25
2023-11-30T01:19:22.369Z,52216.25
2023-11-30T01:21:50.953Z,52200.19
2023-11-30T01:24:19.456Z,52246.34
2023-11-30T01:26:49.561Z,52256.38
2023-11-30T01:29:18.304Z,52238.31
2023-11-30T01:31:49.099Z,52238.31
2023-11-30T01:34:17.606Z,52194.19
2023-11-30T01:36:46.863Z,52234.31
2023-11-30T01:39:16.678Z,52226.28
2023-11-30T01:41:45.255Z,52194.19
2023-11-30T01:44:13.806Z,52212.22
2023-11-30T01:46:42.365Z,52198.19
2023-11-30T01:49:12.416Z,52246.34
2023-11-30T01:51:40.952Z,52242.31
2023-11-30T01:54:09.755Z,52194.19
2023-11-30T01:56:41.918Z,52214.25
2023-11-30T01:59:11.418Z,52236.31
2023-11-30T02:01:40.118Z,52220.25
2023-11-30T02:04:14.410Z,52226.28
2023-11-30T02:06:46.092Z,52222.25
2023-11-30T02:09:15.180Z,52218.25
2023-11-30T02:11:44.778Z,52256.38
2023-11-30T02:14:13.325Z,52222.25
2023-11-30T02:16:41.918Z,52226.28
2023-11-30T02:19:10.430Z,52210.22
2023-11-30T02:21:40.466Z,52250.34
2023-11-30T02:24:11.152Z,52238.31
2023-11-30T02:26:39.695Z,52234.31
2023-11-30T02:29:08.257Z,52194.19
2023-11-30T02:31:39.850Z,52246.34
2023-11-30T02:34:09.079Z,52224.28
2023-11-30T02:36:37.522Z,52242.31
2023-11-30T02:39:06.216Z,52200.19
2023-11-30T02:41:35.996Z,52200.19
2023-11-30T02:44:04.591Z,52240.31
2023-11-30T02:46:33.502Z,52198.19
2023-11-30T02:49:02.410Z,52230.28
2023-11-30T02:51:30.964Z,52256.38
2023-11-30T02:53:59.877Z,52220.25
2023-11-30T02:56:28.616Z,52234.31
2023-11-30T02:58:58.408Z,52198.19
2023-11-30T03:01:26.855Z,52234.31
2023-11-30T03:03:56.115Z,52256.38
2023-11-30T03:06:25.095Z,52236.31
2023-11-30T03:08:53.699Z,52234.31
2023-11-30T03:11:22.217Z,52244.34
2023-11-30T03:13:50.767Z,52216.25
2023-11-30T03:16:25.699Z,52246.34
2023-11-30T03:19:06.287Z,52190.16
2023-11-30T03:21:42.779Z,52218.25
2023-11-30T03:24:11.283Z,52198.19
2023-11-30T03:26:39.743Z,52174.13
2023-11-30T03:29:08.210Z,52234.31
2023-11-30T03:31:40.697Z,52254.38
2023-11-30T03:34:10.189Z,52232.31
2023-11-30T03:36:38.716Z,52254.38
2023-11-30T03:39:07.645Z,52200.19
2023-11-30T03:41:36.141Z,52210.22
2023-11-30T03:44:04.679Z,52266.41
2023-11-30T03:46:33.412Z,52258.38
2023-11-30T03:49:03.828Z,52236.31
2023-11-30T03:51:32.336Z,52200.19
2023-11-30T03:54:00.910Z,52222.25
2023-11-30T03:56:32.756Z,52214.25
2023-11-30T03:59:01.223Z,52192.16
2023-11-30T04:01:29.739Z,52228.28
2023-11-30T04:03:58.274Z,52208.22
2023-11-30T04:06:28.099Z,52246.34
2023-11-30T04:08:56.782Z,52202.19
2023-11-30T04:11:25.245Z,52238.31
2023-11-30T04:13:53.867Z,52242.31
2023-11-30T04:16:22.300Z,52242.31
2023-11-30T04:18:50.841Z,52254.38
2023-11-30T04:21:22.228Z,52242.31
2023-11-30T04:23:52.014Z,52232.31
2023-11-30T04:26:21.018Z,52216.25
2023-11-30T04:28:49.427Z,52228.28
2023-11-30T04:31:17.995Z,52196.19
2023-11-30T04:33:46.525Z,52196.19
2023-11-30T04:36:16.115Z,52212.22
2023-11-30T04:38:44.545Z,52238.31
2023-11-30T04:41:14.422Z,52230.28
2023-11-30T04:43:43.099Z,52214.25
2023-11-30T04:46:15.989Z,52236.31
2023-11-30T04:48:44.588Z,52240.31
2023-11-30T04:51:13.139Z,52206.22
2023-11-30T04:53:41.814Z,52250.34
2023-11-30T04:56:10.925Z,52230.28
2023-11-30T04:58:40.712Z,52176.13
2023-11-30T05:01:09.170Z,52216.25
2023-11-30T05:03:38.765Z,52210.22
2023-11-30T05:06:08.324Z,52230.28
2023-11-30T05:08:36.782Z,52200.19
2023-11-30T05:11:05.785Z,52216.25
2023-11-30T05:13:34.262Z,52224.28
2023-11-30T05:16:04.470Z,52242.31
2023-11-30T05:18:33.064Z,52214.25
2023-11-30T05:21:01.927Z,52220.25
2023-11-30T05:23:30.399Z,52234.31
2023-11-30T05:25:59.376Z,52210.22
2023-11-30T05:28:27.820Z,52226.28
2023-11-30T05:30:56.291Z,52242.31
2023-11-30T05:33:31.156Z,52226.28
2023-11-30T05:36:00.274Z,52176.13
2023-11-30T05:38:28.914Z,52240.31
2023-11-30T05:40:57.900Z,52230.28
2023-11-30T05:43:26.382Z,52210.22
2023-11-30T05:45:55.316Z,52196.19
2023-11-30T05:48:24.031Z,52198.19
2023-11-30T05:50:53.829Z,52156.06
2023-11-30T05:53:22.286Z,52208.22
2023-11-30T05:55:51.007Z,52260.38
2023-11-30T05:58:19.531Z,52230.28
2023-11-30T06:00:48.068Z,52230.28
2023-11-30T06:03:16.673Z,52210.22
2023-11-30T06:05:45.250Z,52242.31
2023-11-30T06:08:17.552Z,52224.28
2023-11-30T06:10:46.244Z,52210.22
2023-11-30T06:13:16.595Z,52226.28
2023-11-30T06:15:45.419Z,52218.25
2023-11-30T06:18:14.088Z,52228.28
2023-11-30T06:20:42.849Z,52214.25
2023-11-30T06:23:11.372Z,52208.22
2023-11-30T06:25:41.180Z,52270.41
2023-11-30T06:28:09.648Z,52190.16
2023-11-30T06:30:38.630Z,52240.31
2023-11-30T06:33:07.100Z,52226.28
2023-11-30T06:35:35.573Z,52214.25
2023-11-30T06:38:04.110Z,52240.31
2023-11-30T06:40:32.596Z,52236.31
2023-11-30T06:43:02.618Z,52214.25
2023-11-30T06:45:31.123Z,52216.25
2023-11-30T06:47:59.796Z,52238.31
2023-11-30T06:50:28.464Z,52218.25
2023-11-30T06:52:56.920Z,52254.38
2023-11-30T06:55:25.362Z,52192.16
2023-11-30T06:57:53.886Z,52230.28
2023-11-30T07:00:23.758Z,52216.25
2023-11-30T07:02:52.236Z,52244.34
2023-11-30T07:05:20.909Z,52224.28
2023-11-30T07:07:49.589Z,52238.31
2023-11-30T07:10:18.266Z,52254.38
2023-11-30T07:12:47.962Z,52216.25
2023-11-30T07:15:16.617Z,52228.28
2023-11-30T07:17:47.930Z,52226.28
2023-11-30T07:20:16.939Z,52220.25
2023-11-30T07:22:45.522Z,52230.28
2023-11-30T07:25:14.050Z,52270.41
2023-11-30T07:27:42.532Z,52198.19
2023-11-30T07:30:12.931Z,52198.19
2023-11-30T07:32:41.660Z,52200.19
2023-11-30T07:35:11.647Z,52206.22
2023-11-30T07:37:40.095Z,52212.22
2023-11-30T07:40:09.266Z,52210.22
2023-11-30T07:42:38.099Z,52182.13
2023-11-30T07:45:10.436Z,52228.28
2023-11-30T07:47:39.123Z,52258.38
2023-11-30T07:50:08.657Z,52222.25
2023-11-30T07:52:38.624Z,52208.22
2023-11-30T07:55:08.410Z,52198.19
2023-11-30T07:57:37.419Z,52222.25
2023-11-30T08:00:08.847Z,52186.16
2023-11-30T08:02:37.791Z,52240.31
2023-11-30T08:05:07.224Z,52234.31
2023-11-30T08:07:36.143Z,52228.28
2023-11-30T08:10:07.466Z,52198.19
2023-11-30T08:12:36.489Z,52202.19
2023-11-30T08:15:05.943Z,52218.25
2023-11-30T08:17:34.627Z,52190.16
2023-11-30T08:20:03.641Z,52212.22
2023-11-30T08:22:32.033Z,52224.28
2023-11-30T08:25:01.714Z,52238.31
2023-11-30T08:27:31.629Z,52198.19
2023-11-30T08:30:00.132Z,52226.28
2023-11-30T08:32:29.149Z,52206.22
2023-11-30T08:34:57.863Z,52224.28
2023-11-30T08:37:26.958Z,52222.25
2023-11-30T08:39:55.459Z,52172.09
2023-11-30T08:42:24.484Z,52178.13
2023-11-30T08:44:54.426Z,52170.09
2023-11-30T08:47:23.025Z,52182.13
2023-11-30T08:49:51.446Z,52170.09
2023-11-30T08:52:19.937Z,52172.09
2023-11-30T08:54:48.618Z,52162.06
2023-11-30T08:57:17.260Z,52184.16
2023-11-30T08:59:47.497Z,52160.06
2023-11-30T09:02:19.839Z,52218.25
2023-11-30T09:04:48.380Z,52170.09
2023-11-30T09:07:17.051Z,52166.09
2023-11-30T09:09:48.619Z,52192.16
2023-11-30T09:12:19.279Z,52202.19
2023-11-30T09:14:47.996Z,52174.13
2023-11-30T09:17:18.403Z,52168.09
2023-11-30T09:19:47.319Z,52198.19
2023-11-30T09:22:16.348Z,52148.03
2023-11-30T09:24:44.893Z,52178.13
2023-11-30T09:27:13.354Z,52156.06
2023-11-30T09:29:41.857Z,52160.06
2023-11-30T09:32:11.009Z,52123.97
2023-11-30T09:34:41.119Z,52162.06
2023-11-30T09:37:09.626Z,52164.09
2023-11-30T09:39:39.365Z,52148.03
2023-11-30T09:42:10.682Z,52148.03
2023-11-30T09:44:39.288Z,52194.19
2023-11-30T09:47:07.756Z,52150.03
2023-11-30T09:49:36.370Z,52140.00
2023-11-30T09:52:07.748Z,52166.09
2023-11-30T09:54:36.510Z,52138.00
2023-11-30T09:57:06.166Z,52121.94
2023-11-30T09:59:34.726Z,52150.03
2023-11-30T10:02:05.636Z,52148.03
2023-11-30T10:04:36.065Z,52148.03
2023-11-30T10:07:06.221Z,52142.00
2023-11-30T10:09:36.826Z,52136.00
2023-11-30T10:12:06.042Z,52154.06
2023-11-30T10:14:35.063Z,52115.94
2023-11-30T10:17:04.132Z,52152.03
2023-11-30T10:19:32.967Z,52131.97
2023-11-30T10:22:01.816Z,52123.97
2023-11-30T10:24:31.732Z,52101.88
2023-11-30T10:27:01.627Z,52160.06
2023-11-30T10:29:31.946Z,52136.00
2023-11-30T10:32:05.083Z,52174.13
2023-11-30T10:34:38.984Z,52166.09
2023-11-30T10:37:07.870Z,52154.06
2023-11-30T10:39:43.754Z,52123.97
2023-11-30T10:42:15.143Z,52140.00
2023-11-30T10:44:47.167Z,52166.09
2023-11-30T10:47:17.325Z,52142.00
2023-11-30T10:49:47.716Z,52117.94
2023-11-30T10:52:17.844Z,52127.97
2023-11-30T10:54:54.107Z,52121.94
2023-11-30T10:57:22.813Z,52154.06
2023-11-30T10:59:58.393Z,52154.06
2023-11-30T11:02:27.304Z,52140.00
2023-11-30T11:04:55.883Z,52146.03
2023-11-30T11:07:24.408Z,52134.00
2023-11-30T11:09:57.683Z,52075.81
2023-11-30T11:12:28.728Z,52129.97
2023-11-30T11:15:12.837Z,52111.91
2023-11-30T11:17:49.143Z,52085.84
2023-11-30T11:20:26.435Z,52091.84
2023-11-30T11:22:56.518Z,52085.84
2023-11-30T11:25:27.299Z,52049.72
2023-11-30T11:27:57.096Z,52045.72
2023-11-30T11:30:28.104Z,52095.88
2023-11-30T11:32:59.377Z,52053.75
2023-11-30T11:35:28.832Z,52067.78
2023-11-30T11:37:58.793Z,52057.75
2023-11-30T11:40:29.138Z,52103.91
2023-11-30T11:42:57.933Z,52059.75
2023-11-30T11:45:26.565Z,52081.81
2023-11-30T11:47:55.209Z,52099.88
2023-11-30T11:50:23.839Z,52081.81
2023-11-30T11:52:52.549Z,52077.81
2023-11-30T11:55:24.937Z,52069.78
2023-11-30T11:57:57.952Z,52023.63
2023-11-30T12:00:27.283Z,52093.88
2023-11-30T12:03:06.495Z,52071.78
2023-11-30T12:05:35.138Z,52061.75
2023-11-30T12:08:03.645Z,52061.75
2023-11-30T12:10:34.016Z,52067.78
2023-11-30T12:13:04.406Z,52101.88
2023-11-30T12:15:32.955Z,52087.84
2023-11-30T12:18:02.863Z,52109.91
2023-11-30T12:20:32.079Z,52105.91
2023-11-30T12:23:00.807Z,52103.91
2023-11-30T12:25:29.567Z,52049.72
2023-11-30T12:27:58.082Z,52103.91
2023-11-30T12:30:27.925Z,52089.84
2023-11-30T12:32:56.514Z,52113.94
2023-11-30T12:35:25.659Z,52051.72
2023-11-30T12:37:54.290Z,52071.78
2023-11-30T12:40:22.789Z,52061.75
2023-11-30T12:42:51.827Z,52059.75
2023-11-30T12:45:20.879Z,52067.78
2023-11-30T12:47:50.929Z,52063.78
2023-11-30T12:50:20.637Z,52051.72
2023-11-30T12:52:49.546Z,52015.63
2023-11-30T12:55:19.913Z,52017.63
2023-11-30T12:57:49.502Z,52053.75
2023-11-30T13:00:21.847Z,52047.72
2023-11-30T13:02:52.757Z,52037.69
2023-11-30T13:05:22.306Z,52097.88
2023-11-30T13:07:53.083Z,52051.72
2023-11-30T13:10:23.470Z,52089.84
2023-11-30T13:12:52.156Z,52069.78
2023-11-30T13:15:20.722Z,52069.78
2023-11-30T13:17:49.361Z,52117.94
2023-11-30T13:20:20.328Z,52091.84
2023-11-30T13:22:48.872Z,52045.72
2023-11-30T13:25:17.667Z,52087.84
2023-11-30T13:27:48.296Z,52113.94
2023-11-30T13:30:18.798Z,52075.81
2023-11-30T13:32:48.522Z,52089.84
2023-11-30T13:35:17.219Z,52077.81
2023-11-30T13:37:47.402Z,52089.84
2023-11-30T13:40:16.661Z,52087.84
2023-11-30T13:42:45.202Z,52136.00
2023-11-30T13:45:13.840Z,52077.81
2023-11-30T13:47:48.414Z,52107.91
2023-11-30T13:50:26.289Z,52085.84
2023-11-30T13:53:01.301Z,52134.00
2023-11-30T13:55:30.888Z,52095.88
2023-11-30T13:57:59.431Z,52117.94
2023-11-30T14:00:28.070Z,52083.84
2023-11-30T14:02:56.704Z,52101.88
2023-11-30T14:05:25.281Z,52123.97
2023-11-30T14:07:53.860Z,52160.06
2023-11-30T14:10:24.088Z,52131.97
2023-11-30T14:12:52.897Z,52099.88
2023-11-30T14:15:22.212Z,52162.06
2023-11-30T14:17:51.132Z,52160.06
2023-11-30T14:20:21.072Z,52127.97
2023-11-30T14:22:50.397Z,52142.00
2023-11-30T14:25:19.171Z,52142.00
2023-11-30T14:27:49.732Z,52134.00
2023-11-30T14:30:18.831Z,52158.06
2023-11-30T14:32:48.564Z,52125.97
2023-11-30T14:35:17.325Z,52146.03
2023-11-30T14:37:45.737Z,52121.94
2023-11-30T14:40:14.752Z,52117.94
2023-11-30T14:42:43.608Z,52148.03
2023-11-30T14:45:14.180Z,52194.19
2023-11-30T14:47:44.915Z,52152.03
2023-11-30T14:50:16.382Z,52111.91
2023-11-30T14:52:46.357Z,52158.06
2023-11-30T14:55:15.669Z,52164.09
2023-11-30T14:57:44.872Z,52142.00
2023-11-30T15:00:18.493Z,52136.00
2023-11-30T15:02:47.173Z,52160.06
2023-11-30T15:05:16.630Z,52142.00
2023-11-30T15:07:45.322Z,52176.13
2023-11-30T15:10:14.714Z,52131.97
2023-11-30T15:12:43.811Z,52160.06
2023-11-30T15:15:15.506Z,52160.06
2023-11-30T15:17:47.911Z,52140.00
2023-11-30T15:20:18.268Z,52188.16
2023-11-30T15:22:47.917Z,52146.03
2023-11-30T15:25:19.803Z,52182.13
2023-11-30T15:27:50.328Z,52170.09
2023-11-30T15:30:19.618Z,52192.16
2023-11-30T15:32:49.649Z,52129.97
2023-11-30T15:35:18.196Z,52216.25
2023-11-30T15:37:50.148Z,52162.06
2023-11-30T15:40:22.184Z,52164.09
2023-11-30T15:42:52.568Z,52148.03
2023-11-30T15:45:22.997Z,52158.06
2023-11-30T15:47:53.442Z,52188.16
2023-11-30T15:50:25.792Z,52188.16
2023-11-30T15:52:54.412Z,52198.19
2023-11-30T15:55:25.386Z,52164.09
2023-11-30T15:57:54.204Z,52198.19
2023-11-30T16:00:22.725Z,52168.09
2023-11-30T16:02:51.963Z,52158.06
2023-11-30T16:05:22.024Z,52236.31
2023-11-30T16:07:51.385Z,52218.25
2023-11-30T16:10:19.864Z,52218.25
2023-11-30T16:12:48.865Z,52206.22
2023-11-30T16:15:17.602Z,52172.09
2023-11-30T16:17:47.689Z,52180.13
2023-11-30T16:20:16.393Z,52216.25
2023-11-30T16:22:46.256Z,52226.28
2023-11-30T16:25:15.292Z,52200.19
2023-11-30T16:27:44.437Z,52180.13
2023-11-30T16:30:14.170Z,52200.19
2023-11-30T16:32:43.869Z,52190.16
2023-11-30T16:35:12.942Z,52202.19
2023-11-30T16:37:41.366Z,52150.03
2023-11-30T16:40:12.567Z,52168.09
2023-11-30T16:42:41.161Z,52184.16
2023-11-30T16:45:10.307Z,52188.16
2023-11-30T16:47:40.300Z,52138.00
2023-11-30T16:50:14.482Z,52158.06
2023-11-30T16:52:43.827Z,52196.19
2023-11-30T16:55:14.318Z,52210.22
2023-11-30T16:57:45.469Z,52164.09
2023-11-30T17:00:15.141Z,52190.16
2023-11-30T17:02:44.453Z,52182.13
2023-11-30T17:05:13.495Z,52206.22
2023-11-30T17:07:43.598Z,52182.13
2023-11-30T17:10:13.534Z,52190.16
2023-11-30T17:12:42.138Z,52156.06
2023-11-30T17:15:11.223Z,52178.13
2023-11-30T17:17:39.679Z,52158.06
2023-11-30T17:20:08.998Z,52178.13
2023-11-30T17:22:39.142Z,52148.03
2023-11-30T17:25:08.619Z,52184.16
2023-11-30T17:27:38.725Z,52202.19
2023-11-30T17:30:08.292Z,52184.16
2023-11-30T17:32:36.921Z,52198.19
2023-11-30T17:35:06.097Z,52186.16
2023-11-30T17:37:35.254Z,52174.13
2023-11-30T17:40:04.044Z,52184.16
2023-11-30T17:42:32.922Z,52210.22
2023-11-30T17:45:03.133Z,52194.19
2023-11-30T17:47:32.261Z,52190.16
2023-11-30T17:50:02.878Z,52158.06
2023-11-30T17:52:33.213Z,52186.16
2023-11-30T17:55:02.235Z,52172.09
2023-11-30T17:57:32.346Z,52194.19
2023-11-30T18:00:02.290Z,52190.16
2023-11-30T18:02:40.558Z,52236.31
2023-11-30T18:05:10.522Z,52196.19
2023-11-30T18:07:39.012Z,52166.09
2023-11-30T18:10:08.505Z,52196.19
2023-11-30T18:12:38.294Z,52194.19
2023-11-30T18:15:10.190Z,52206.22
2023-11-30T18:17:38.740Z,52152.03
2023-11-30T18:20:08.034Z,52180.13
2023-11-30T18:22:36.511Z,52190.16
2023-11-30T18:25:05.407Z,52172.09
2023-11-30T18:27:33.956Z,52192.16
2023-11-30T18:30:02.502Z,52194.19
2023-11-30T18:32:33.126Z,52178.13
2023-11-30T18:35:01.979Z,52214.25
2023-11-30T18:37:30.479Z,52260.38
2023-11-30T18:39:59.410Z,52206.22
2023-11-30T18:42:28.150Z,52160.06
2023-11-30T18:44:56.643Z,52176.13
2023-11-30T18:47:25.843Z,52158.06
2023-11-30T18:49:55.751Z,52190.16
2023-11-30T18:52:24.904Z,52178.13
2023-11-30T18:54:55.552Z,52180.13
2023-11-30T18:57:24.088Z,52176.13
2023-11-30T18:59:52.669Z,52184.16
2023-11-30T19:02:21.595Z,52164.09
2023-11-30T19:04:50.166Z,52198.19
2023-11-30T19:07:20.378Z,52160.06
2023-11-30T19:09:51.333Z,52196.19
2023-11-30T19:12:19.974Z,52186.16
2023-11-30T19:14:48.572Z,52202.19
2023-11-30T19:17:17.057Z,52172.09
2023-11-30T19:19:45.540Z,52170.09
2023-11-30T19:22:14.119Z,52158.06
2023-11-30T19:24:45.175Z,52146.03
2023-11-30T19:27:13.710Z,52170.09
2023-11-30T19:29:42.293Z,52186.16
2023-11-30T19:32:13.074Z,52198.19
2023-11-30T19:34:41.567Z,52174.13
2023-11-30T19:37:10.162Z,52164.09
2023-11-30T19:39:38.753Z,52190.16
2023-11-30T19:42:08.956Z,52160.06
2023-11-30T19:44:37.491Z,52160.06
2023-11-30T19:47:07.905Z,52176.13
2023-11-30T19:49:36.557Z,52162.06
2023-11-30T19:52:05.584Z,52182.13
2023-11-30T19:54:34.045Z,52125.97
2023-11-30T19:57:03.669Z,52144.03
2023-11-30T19:59:33.473Z,52142.00
2023-11-30T20:02:02.116Z,52152.03
2023-11-30T20:04:30.676Z,52206.22
2023-11-30T20:06:59.278Z,52131.97
2023-11-30T20:09:27.804Z,52182.13
2023-11-30T20:11:56.345Z,52154.06
2023-11-30T20:14:24.943Z,52202.19
2023-11-30T20:16:54.762Z,52184.16
2023-11-30T20:19:23.886Z,52184.16
2023-11-30T20:21:52.358Z,52160.06
2023-11-30T20:24:20.963Z,52166.09
2023-11-30T20:26:49.918Z,52162.06
2023-11-30T20:29:18.405Z,52148.03
2023-11-30T20:31:46.882Z,52125.97
2023-11-30T20:34:16.951Z,52166.09
2023-11-30T20:36:45.525Z,52184.16
2023-11-30T20:39:13.934Z,52162.06
2023-11-30T20:41:42.513Z,52156.06
2023-11-30T20:44:11.008Z,52152.03
2023-11-30T20:46:39.583Z,52168.09
2023-11-30T20:49:08.188Z,52131.97
2023-11-30T20:51:38.045Z,52144.03
2023-11-30T20:54:10.026Z,52172.09
2023-11-30T20:56:38.724Z,52164.09
2023-11-30T20:59:07.821Z,52196.19
2023-11-30T21:01:36.567Z,52172.09
2023-11-30T21:04:08.658Z,52136.00
2023-11-30T21:06:38.681Z,52238.31
2023-11-30T21:09:07.974Z,52174.13
2023-11-30T21:11:39.233Z,52182.13
2023-11-30T21:14:08.950Z,52162.06
2023-11-30T21:16:37.589Z,52200.19
2023-11-30T21:19:06.133Z,52200.19
2023-11-30T21:21:34.739Z,52208.22
2023-11-30T21:24:04.964Z,52234.31
2023-11-30T21:26:33.484Z,52220.25
2023-11-30T21:29:01.897Z,52188.16
2023-11-30T21:31:30.552Z,52214.25
2023-11-30T21:33:59.057Z,52198.19
2023-11-30T21:36:27.573Z,52194.19
2023-11-30T21:38:56.034Z,52242.31
2023-11-30T21:41:26.308Z,52270.41
2023-11-30T21:43:54.856Z,52190.16
2023-11-30T21:46:23.324Z,52190.16
2023-11-30T21:48:52.817Z,52248.34
2023-11-30T21:51:21.476Z,52236.31
2023-11-30T21:53:50.664Z,52194.19
2023-11-30T21:56:19.247Z,52208.22
2023-11-30T21:58:49.577Z,52172.09
2023-11-30T22:01:18.809Z,52210.22
2023-11-30T22:03:47.464Z,52186.16
2023-11-30T22:06:16.272Z,52172.09
2023-11-30T22:08:44.725Z,52170.09
2023-11-30T22:11:13.128Z,52188.16
2023-11-30T22:13:41.559Z,52206.22
2023-11-30T22:16:13.997Z,52218.25
2023-11-30T22:18:44.432Z,52172.09
2023-11-30T22:21:12.887Z,52194.19
2023-11-30T22:23:41.330Z,52214.25
2023-11-30T22:26:10.496Z,52198.19
2023-11-30T22:28:39.562Z,52228.28
2023-11-30T22:31:08.809Z,52210.22
2023-11-30T22:33:38.874Z,52242.31
2023-11-30T22:36:08.505Z,52210.22
2023-11-30T22:38:43.702Z,52212.22
2023-11-30T22:41:14.781Z,52230.28
2023-11-30T22:43:43.388Z,52224.28
2023-11-30T22:46:18.066Z,52236.31
2023-11-30T22:48:49.529Z,52194.19
2023-11-30T22:51:18.546Z,52210.22
2023-11-30T22:53:47.685Z,52202.19
2023-11-30T22:56:23.664Z,52192.16
2023-11-30T22:58:52.274Z,52188.16
2023-11-30T23:01:22.035Z,52196.19
2023-11-30T23:03:52.238Z,52240.31
2023-11-30T23:06:22.459Z,52234.31
2023-11-30T23:08:51.046Z,52190.16
2023-11-30T23:11:19.510Z,52194.19
2023-11-30T23:13:49.225Z,52216.25
2023-11-30T23:16:19.856Z,52202.19
2023-11-30T23:18:48.438Z,52208.22
2023-11-30T23:21:18.531Z,52186.16
2023-11-30T23:23:46.989Z,52192.16
2023-11-30T23:26:15.550Z,52206.22
2023-11-30T23:28:44.019Z,52200.19
2023-11-30T23:31:12.627Z,52166.09
2023-11-30T23:33:41.247Z,52224.28
2023-11-30T23:36:10.976Z,52186.16
2023-11-30T23:38:41.132Z,52248.34
2023-11-30T23:41:09.722Z,52242.31
2023-11-30T23:43:38.847Z,52190.16
2023-11-30T23:46:07.816Z,52226.28
2023-11-30T23:48:36.365Z,52238.31
2023-11-30T23:51:05.734Z,52214.25
2023-11-30T23:53:34.307Z,52252.38
2023-11-30T23:56:04.307Z,52200.19
2023-11-30T23:58:32.756Z,52202.19
